sensor_id;sensor_type;location;lat;lon;timestamp;P1;P2;P0
72509;PMS5003;60532;56.114;40.350;2022-08-19T00:00:24;9.00;8.00;5.75
72509;PMS5003;60532;56.114;40.350;2022-08-19T00:05:25;9.50;8.25;5.50
72509;PMS5003;60532;56.114;40.350;2022-08-19T00:10:25;7.50;7.50;6.00
72509;PMS5003;60532;56.114;40.350;2022-08-19T00:15:26;7.75;7.75;4.75
72509;PMS5003;60532;56.114;40.350;2022-08-19T00:20:27;9.00;9.00;6.20
72509;PMS5003;60532;56.114;40.350;2022-08-19T00:25:27;8.00;8.00;5.50
72509;PMS5003;60532;56.114;40.350;2022-08-19T00:30:28;9.75;9.75;6.50
72509;PMS5003;60532;56.114;40.350;2022-08-19T00:35:28;6.75;5.50;4.00
72509;PMS5003;60532;56.114;40.350;2022-08-19T00:40:29;12.00;11.00;7.50
72509;PMS5003;60532;56.114;40.350;2022-08-19T00:45:30;9.80;9.80;6.00
72509;PMS5003;60532;56.114;40.350;2022-08-19T00:50:47;12.20;9.20;5.00
72509;PMS5003;60532;56.114;40.350;2022-08-19T00:55:49;11.60;8.00;5.00
72509;PMS5003;60532;56.114;40.350;2022-08-19T01:00:51;11.40;10.80;6.00
72509;PMS5003;60532;56.114;40.350;2022-08-19T01:05:51;9.50;8.00;5.00
72509;PMS5003;60532;56.114;40.350;2022-08-19T01:10:54;10.60;9.80;7.00
72509;PMS5003;60532;56.114;40.350;2022-08-19T01:15:57;10.20;10.20;6.80
72509;PMS5003;60532;56.114;40.350;2022-08-19T01:21:01;3.20;2.40;2.40
72509;PMS5003;60532;56.114;40.350;2022-08-19T01:26:02;13.40;13.20;7.00
72509;PMS5003;60532;56.114;40.350;2022-08-19T01:31:02;14.50;14.00;7.50
72509;PMS5003;60532;56.114;40.350;2022-08-19T01:36:14;10.50;10.50;6.00
72509;PMS5003;60532;56.114;40.350;2022-08-19T01:41:15;10.20;10.20;5.60
72509;PMS5003;60532;56.114;40.350;2022-08-19T01:46:17;11.60;10.60;6.60
72509;PMS5003;60532;56.114;40.350;2022-08-19T01:51:18;13.75;13.75;7.50
72509;PMS5003;60532;56.114;40.350;2022-08-19T01:56:19;10.00;10.00;7.00
72509;PMS5003;60532;56.114;40.350;2022-08-19T02:01:19;9.00;9.00;7.00
72509;PMS5003;60532;56.114;40.350;2022-08-19T02:06:20;9.00;8.25;5.00
72509;PMS5003;60532;56.114;40.350;2022-08-19T02:11:25;14.00;12.75;7.00
72509;PMS5003;60532;56.114;40.350;2022-08-19T02:16:26;11.00;10.00;6.20
72509;PMS5003;60532;56.114;40.350;2022-08-19T02:21:27;9.75;9.75;6.00
72509;PMS5003;60532;56.114;40.350;2022-08-19T02:26:28;11.00;11.00;8.00
72509;PMS5003;60532;56.114;40.350;2022-08-19T02:31:28;12.75;10.00;6.75
72509;PMS5003;60532;56.114;40.350;2022-08-19T02:36:29;15.75;10.50;7.00
72509;PMS5003;60532;56.114;40.350;2022-08-19T02:41:31;13.75;12.50;8.50
72509;PMS5003;60532;56.114;40.350;2022-08-19T02:46:32;13.40;11.40;7.80
72509;PMS5003;60532;56.114;40.350;2022-08-19T02:51:34;12.25;12.00;7.00
72509;PMS5003;60532;56.114;40.350;2022-08-19T02:56:36;13.00;13.00;9.00
72509;PMS5003;60532;56.114;40.350;2022-08-19T03:01:37;16.00;12.40;9.00
72509;PMS5003;60532;56.114;40.350;2022-08-19T03:06:40;16.00;14.20;9.20
72509;PMS5003;60532;56.114;40.350;2022-08-19T03:11:41;13.60;10.00;7.40
72509;PMS5003;60532;56.114;40.350;2022-08-19T03:16:43;15.75;14.25;8.00
72509;PMS5003;60532;56.114;40.350;2022-08-19T03:21:44;15.20;15.00;8.40
72509;PMS5003;60532;56.114;40.350;2022-08-19T03:26:47;14.20;11.40;7.80
72509;PMS5003;60532;56.114;40.350;2022-08-19T03:31:48;16.00;14.00;9.60
72509;PMS5003;60532;56.114;40.350;2022-08-19T03:36:51;16.20;14.60;7.60
72509;PMS5003;60532;56.114;40.350;2022-08-19T03:41:52;18.00;18.00;10.25
72509;PMS5003;60532;56.114;40.350;2022-08-19T03:46:53;18.80;14.40;8.60
72509;PMS5003;60532;56.114;40.350;2022-08-19T03:51:56;22.20;18.80;11.00
72509;PMS5003;60532;56.114;40.350;2022-08-19T03:56:56;20.60;19.40;11.00
72509;PMS5003;60532;56.114;40.350;2022-08-19T04:01:58;18.25;17.50;11.50
72509;PMS5003;60532;56.114;40.350;2022-08-19T04:06:59;21.80;20.40;11.80
72509;PMS5003;60532;56.114;40.350;2022-08-19T04:11:59;19.25;19.25;13.25
72509;PMS5003;60532;56.114;40.350;2022-08-19T04:17:03;17.50;16.00;11.00
72509;PMS5003;60532;56.114;40.350;2022-08-19T04:22:07;18.40;17.20;10.00
72509;PMS5003;60532;56.114;40.350;2022-08-19T04:27:07;21.00;20.75;12.50
72509;PMS5003;60532;56.114;40.350;2022-08-19T04:32:08;21.25;18.50;11.00
72509;PMS5003;60532;56.114;40.350;2022-08-19T04:37:09;17.50;17.50;11.00
72509;PMS5003;60532;56.114;40.350;2022-08-19T04:42:12;22.20;20.80;12.00
72509;PMS5003;60532;56.114;40.350;2022-08-19T04:47:32;20.60;19.20;12.00
72509;PMS5003;60532;56.114;40.350;2022-08-19T04:52:33;21.25;20.50;12.50
72509;PMS5003;60532;56.114;40.350;2022-08-19T04:57:33;22.75;18.00;11.50
72509;PMS5003;60532;56.114;40.350;2022-08-19T05:02:34;18.75;18.00;12.00
72509;PMS5003;60532;56.114;40.350;2022-08-19T05:07:34;21.00;19.25;11.25
72509;PMS5003;60532;56.114;40.350;2022-08-19T05:12:35;20.75;20.75;12.50
72509;PMS5003;60532;56.114;40.350;2022-08-19T05:17:36;18.00;18.00;11.20
72509;PMS5003;60532;56.114;40.350;2022-08-19T05:22:37;25.00;20.67;12.00
72509;PMS5003;60532;56.114;40.350;2022-08-19T05:27:38;19.67;18.00;11.00
72509;PMS5003;60532;56.114;40.350;2022-08-19T05:32:39;21.00;19.00;12.33
72509;PMS5003;60532;56.114;40.350;2022-08-19T05:37:39;15.50;14.25;9.00
72509;PMS5003;60532;56.114;40.350;2022-08-19T05:42:40;13.33;13.33;8.00
72509;PMS5003;60532;56.114;40.350;2022-08-19T05:47:41;14.67;14.67;8.67
72509;PMS5003;60532;56.114;40.350;2022-08-19T05:52:41;13.00;12.33;9.33
72509;PMS5003;60532;56.114;40.350;2022-08-19T05:57:42;12.67;12.67;8.00
72509;PMS5003;60532;56.114;40.350;2022-08-19T06:02:42;14.33;12.33;8.67
72509;PMS5003;60532;56.114;40.350;2022-08-19T06:07:43;14.00;14.00;8.33
72509;PMS5003;60532;56.114;40.350;2022-08-19T06:12:43;11.25;9.00;7.50
72509;PMS5003;60532;56.114;40.350;2022-08-19T06:17:44;13.25;13.25;8.00
72509;PMS5003;60532;56.114;40.350;2022-08-19T06:22:45;12.33;12.33;7.33
72509;PMS5003;60532;56.114;40.350;2022-08-19T06:27:46;12.40;11.40;7.20
72509;PMS5003;60532;56.114;40.350;2022-08-19T06:32:47;12.75;12.50;7.50
72509;PMS5003;60532;56.114;40.350;2022-08-19T06:37:50;10.00;10.00;6.00
72509;PMS5003;60532;56.114;40.350;2022-08-19T06:42:51;10.80;10.80;6.80
72509;PMS5003;60532;56.114;40.350;2022-08-19T06:47:56;13.40;12.80;8.00
72509;PMS5003;60532;56.114;40.350;2022-08-19T06:52:57;11.20;8.20;5.00
72509;PMS5003;60532;56.114;40.350;2022-08-19T06:58:04;10.00;7.00;5.00
72509;PMS5003;60532;56.114;40.350;2022-08-19T07:03:04;8.75;8.00;5.50
72509;PMS5003;60532;56.114;40.350;2022-08-19T07:08:08;9.50;9.50;6.50
72509;PMS5003;60532;56.114;40.350;2022-08-19T07:13:10;11.25;10.75;6.25
72509;PMS5003;60532;56.114;40.350;2022-08-19T07:18:11;11.00;9.00;6.00
72509;PMS5003;60532;56.114;40.350;2022-08-19T07:23:12;13.33;10.67;6.33
72509;PMS5003;60532;56.114;40.350;2022-08-19T07:28:13;7.75;7.75;4.00
72509;PMS5003;60532;56.114;40.350;2022-08-19T07:33:13;10.67;10.67;6.00
72509;PMS5003;60532;56.114;40.350;2022-08-19T07:38:14;9.33;8.00;4.67
72509;PMS5003;60532;56.114;40.350;2022-08-19T07:43:15;7.50;7.00;5.00
72509;PMS5003;60532;56.114;40.350;2022-08-19T07:48:16;8.67;7.00;4.67
72509;PMS5003;60532;56.114;40.350;2022-08-19T07:53:16;7.33;6.67;3.67
72509;PMS5003;60532;56.114;40.350;2022-08-19T07:58:18;7.00;7.00;4.67
72509;PMS5003;60532;56.114;40.350;2022-08-19T08:03:19;7.25;6.50;3.25
72509;PMS5003;60532;56.114;40.350;2022-08-19T08:08:20;9.00;7.25;3.00
72509;PMS5003;60532;56.114;40.350;2022-08-19T08:13:24;3.50;3.50;3.00
72509;PMS5003;60532;56.114;40.350;2022-08-19T08:18:24;4.33;4.33;3.00
72509;PMS5003;60532;56.114;40.350;2022-08-19T08:23:25;5.33;5.33;3.67
72509;PMS5003;60532;56.114;40.350;2022-08-19T08:28:26;5.00;4.00;3.00
72509;PMS5003;60532;56.114;40.350;2022-08-19T08:33:28;4.50;4.50;2.50
72509;PMS5003;60532;56.114;40.350;2022-08-19T08:38:30;8.00;7.25;3.25
72509;PMS5003;60532;56.114;40.350;2022-08-19T08:43:33;9.00;7.25;3.00
72509;PMS5003;60532;56.114;40.350;2022-08-19T08:48:51;7.50;7.25;3.75
72509;PMS5003;60532;56.114;40.350;2022-08-19T08:53:54;8.75;7.25;3.25
72509;PMS5003;60532;56.114;40.350;2022-08-19T08:59:07;8.00;4.00;2.75
72509;PMS5003;60532;56.114;40.350;2022-08-19T09:04:10;7.75;6.25;3.75
72509;PMS5003;60532;56.114;40.350;2022-08-19T09:09:14;8.00;6.25;2.50
72509;PMS5003;60532;56.114;40.350;2022-08-19T09:14:32;6.00;6.00;3.75
72509;PMS5003;60532;56.114;40.350;2022-08-19T09:19:33;5.50;5.50;4.00
72509;PMS5003;60532;56.114;40.350;2022-08-19T09:24:34;6.00;6.00;3.75
72509;PMS5003;60532;56.114;40.350;2022-08-19T09:29:35;7.00;6.25;4.00
72509;PMS5003;60532;56.114;40.350;2022-08-19T09:34:37;7.00;6.00;3.50
72509;PMS5003;60532;56.114;40.350;2022-08-19T09:39:38;8.67;8.00;3.00
72509;PMS5003;60532;56.114;40.350;2022-08-19T09:44:41;7.75;6.00;4.00
72509;PMS5003;60532;56.114;40.350;2022-08-19T09:49:41;6.00;6.00;3.33
72509;PMS5003;60532;56.114;40.350;2022-08-19T09:54:42;4.00;2.33;1.00
72509;PMS5003;60532;56.114;40.350;2022-08-19T10:00:02;6.25;6.00;3.00
72509;PMS5003;60532;56.114;40.350;2022-08-19T10:05:03;4.50;4.50;3.00
72509;PMS5003;60532;56.114;40.350;2022-08-19T10:10:22;8.25;7.00;4.75
72509;PMS5003;60532;56.114;40.350;2022-08-19T10:15:22;9.00;6.00;3.67
72509;PMS5003;60532;56.114;40.350;2022-08-19T10:20:23;7.00;6.67;4.00
72509;PMS5003;60532;56.114;40.350;2022-08-19T10:25:24;8.00;6.50;3.00
72509;PMS5003;60532;56.114;40.350;2022-08-19T10:30:26;8.75;7.00;4.00
72509;PMS5003;60532;56.114;40.350;2022-08-19T10:35:27;6.00;5.00;4.00
72509;PMS5003;60532;56.114;40.350;2022-08-19T10:40:29;6.50;6.00;3.00
72509;PMS5003;60532;56.114;40.350;2022-08-19T10:45:30;10.00;8.00;4.67
72509;PMS5003;60532;56.114;40.350;2022-08-19T10:50:30;6.00;6.00;4.00
72509;PMS5003;60532;56.114;40.350;2022-08-19T10:55:49;6.00;6.00;3.75
72509;PMS5003;60532;56.114;40.350;2022-08-19T11:01:08;5.75;5.00;3.00
72509;PMS5003;60532;56.114;40.350;2022-08-19T11:06:09;3.67;3.67;2.00
72509;PMS5003;60532;56.114;40.350;2022-08-19T11:11:09;4.67;4.00;1.67
72509;PMS5003;60532;56.114;40.350;2022-08-19T11:16:11;9.00;6.00;4.00
72509;PMS5003;60532;56.114;40.350;2022-08-19T11:21:15;6.25;6.25;4.00
72509;PMS5003;60532;56.114;40.350;2022-08-19T11:26:20;6.75;5.50;3.00
72509;PMS5003;60532;56.114;40.350;2022-08-19T11:31:22;7.75;6.75;3.50
72509;PMS5003;60532;56.114;40.350;2022-08-19T11:36:24;7.00;5.50;4.00
72509;PMS5003;60532;56.114;40.350;2022-08-19T11:41:24;12.00;8.00;5.00
72509;PMS5003;60532;56.114;40.350;2022-08-19T11:46:26;5.00;5.00;4.00
72509;PMS5003;60532;56.114;40.350;2022-08-19T11:51:30;7.00;7.00;3.00
72509;PMS5003;60532;56.114;40.350;2022-08-19T11:56:31;6.75;6.25;4.00
72509;PMS5003;60532;56.114;40.350;2022-08-19T12:01:31;6.67;6.33;4.00
72509;PMS5003;60532;56.114;40.350;2022-08-19T12:06:32;5.00;5.00;3.67
72509;PMS5003;60532;56.114;40.350;2022-08-19T12:11:34;4.25;3.00;1.75
72509;PMS5003;60532;56.114;40.350;2022-08-19T12:16:35;3.33;3.33;1.33
72509;PMS5003;60532;56.114;40.350;2022-08-19T12:21:35;7.00;6.33;3.33
72509;PMS5003;60532;56.114;40.350;2022-08-19T12:26:36;7.00;5.33;4.00
72509;PMS5003;60532;56.114;40.350;2022-08-19T12:31:36;5.00;5.00;3.00
72509;PMS5003;60532;56.114;40.350;2022-08-19T12:36:37;7.00;7.00;3.33
72509;PMS5003;60532;56.114;40.350;2022-08-19T12:41:37;8.67;7.00;4.00
72509;PMS5003;60532;56.114;40.350;2022-08-19T12:46:39;6.00;4.25;2.50
72509;PMS5003;60532;56.114;40.350;2022-08-19T12:51:39;4.67;4.00;2.67
72509;PMS5003;60532;56.114;40.350;2022-08-19T12:56:41;5.00;5.00;2.75
72509;PMS5003;60532;56.114;40.350;2022-08-19T13:01:44;5.25;5.25;2.50
72509;PMS5003;60532;56.114;40.350;2022-08-19T13:06:44;12.33;6.00;3.00
72509;PMS5003;60532;56.114;40.350;2022-08-19T13:11:45;7.00;5.67;3.00
72509;PMS5003;60532;56.114;40.350;2022-08-19T13:16:46;7.00;7.00;4.00
72509;PMS5003;60532;56.114;40.350;2022-08-19T13:21:48;6.00;6.00;3.00
72509;PMS5003;60532;56.114;40.350;2022-08-19T13:26:49;3.50;3.50;1.75
72509;PMS5003;60532;56.114;40.350;2022-08-19T13:31:50;6.33;5.00;2.67
72509;PMS5003;60532;56.114;40.350;2022-08-19T13:37:09;3.50;3.25;2.25
72509;PMS5003;60532;56.114;40.350;2022-08-19T13:42:09;7.67;5.00;2.67
72509;PMS5003;60532;56.114;40.350;2022-08-19T13:47:10;6.00;4.00;2.50
72509;PMS5003;60532;56.114;40.350;2022-08-19T13:52:12;5.00;5.00;2.25
72509;PMS5003;60532;56.114;40.350;2022-08-19T13:57:13;5.00;5.00;3.33
72509;PMS5003;60532;56.114;40.350;2022-08-19T14:02:13;5.33;5.33;2.33
72509;PMS5003;60532;56.114;40.350;2022-08-19T14:07:15;6.00;5.00;3.00
72509;PMS5003;60532;56.114;40.350;2022-08-19T14:12:18;4.00;4.00;2.67
72509;PMS5003;60532;56.114;40.350;2022-08-19T14:17:19;6.25;6.25;4.00
72509;PMS5003;60532;56.114;40.350;2022-08-19T14:22:19;6.00;6.00;3.00
72509;PMS5003;60532;56.114;40.350;2022-08-19T14:27:20;4.25;4.25;2.50
72509;PMS5003;60532;56.114;40.350;2022-08-19T14:32:21;4.67;4.67;2.33
72509;PMS5003;60532;56.114;40.350;2022-08-19T14:37:22;7.67;5.00;3.00
72509;PMS5003;60532;56.114;40.350;2022-08-19T14:42:22;5.67;5.00;2.67
72509;PMS5003;60532;56.114;40.350;2022-08-19T14:47:23;4.00;4.00;3.00
72509;PMS5003;60532;56.114;40.350;2022-08-19T14:52:23;4.00;4.00;2.00
72509;PMS5003;60532;56.114;40.350;2022-08-19T14:57:25;6.75;4.50;2.25
72509;PMS5003;60532;56.114;40.350;2022-08-19T15:02:25;5.67;5.67;3.00
72509;PMS5003;60532;56.114;40.350;2022-08-19T15:07:26;4.33;4.00;2.00
72509;PMS5003;60532;56.114;40.350;2022-08-19T15:12:26;3.67;3.00;2.00
72509;PMS5003;60532;56.114;40.350;2022-08-19T15:17:27;3.33;3.33;1.00
72509;PMS5003;60532;56.114;40.350;2022-08-19T15:22:30;3.25;3.00;1.00
72509;PMS5003;60532;56.114;40.350;2022-08-19T15:27:32;2.50;2.00;1.00
72509;PMS5003;60532;56.114;40.350;2022-08-19T15:32:32;4.67;3.00;1.00
72509;PMS5003;60532;56.114;40.350;2022-08-19T15:37:33;4.00;4.00;1.67
72509;PMS5003;60532;56.114;40.350;2022-08-19T15:42:37;4.67;2.67;1.33
72509;PMS5003;60532;56.114;40.350;2022-08-19T15:47:38;3.40;2.40;0.00
72509;PMS5003;60532;56.114;40.350;2022-08-19T15:52:49;3.00;3.00;1.67
72509;PMS5003;60532;56.114;40.350;2022-08-19T15:57:50;3.75;3.75;1.50
72509;PMS5003;60532;56.114;40.350;2022-08-19T16:03:10;5.40;3.40;2.20
72509;PMS5003;60532;56.114;40.350;2022-08-19T16:08:30;4.40;4.40;2.00
72509;PMS5003;60532;56.114;40.350;2022-08-19T16:13:31;5.00;4.00;2.00
72509;PMS5003;60532;56.114;40.350;2022-08-19T16:18:31;6.00;6.00;3.00
72509;PMS5003;60532;56.114;40.350;2022-08-19T16:23:37;5.80;5.80;3.00
72509;PMS5003;60532;56.114;40.350;2022-08-19T16:28:38;2.50;2.50;1.75
72509;PMS5003;60532;56.114;40.350;2022-08-19T16:33:38;2.75;2.75;1.25
72509;PMS5003;60532;56.114;40.350;2022-08-19T16:38:39;4.50;4.50;3.00
72509;PMS5003;60532;56.114;40.350;2022-08-19T16:43:40;6.00;5.00;2.25
72509;PMS5003;60532;56.114;40.350;2022-08-19T16:48:40;6.00;4.00;2.00
72509;PMS5003;60532;56.114;40.350;2022-08-19T16:53:44;10.80;7.00;4.00
72509;PMS5003;60532;56.114;40.350;2022-08-19T16:58:44;15.75;15.00;6.50
72509;PMS5003;60532;56.114;40.350;2022-08-19T17:03:45;2.75;2.75;0.00
72509;PMS5003;60532;56.114;40.350;2022-08-19T17:08:50;5.40;5.40;3.00
72509;PMS5003;60532;56.114;40.350;2022-08-19T17:13:51;10.60;7.20;3.40
72509;PMS5003;60532;56.114;40.350;2022-08-19T17:18:53;5.60;4.00;2.60
72509;PMS5003;60532;56.114;40.350;2022-08-19T17:23:54;4.80;4.00;2.40
72509;PMS5003;60532;56.114;40.350;2022-08-19T17:28:55;4.25;4.25;2.00
72509;PMS5003;60532;56.114;40.350;2022-08-19T17:33:57;2.60;2.60;2.00
72509;PMS5003;60532;56.114;40.350;2022-08-19T17:39:01;3.20;3.20;1.20
72509;PMS5003;60532;56.114;40.350;2022-08-19T17:44:03;3.00;3.00;1.60
72509;PMS5003;60532;56.114;40.350;2022-08-19T17:49:03;3.00;2.00;1.00
72509;PMS5003;60532;56.114;40.350;2022-08-19T17:54:04;5.00;3.25;2.50
72509;PMS5003;60532;56.114;40.350;2022-08-19T17:59:05;3.20;3.20;1.00
72509;PMS5003;60532;56.114;40.350;2022-08-19T18:04:06;3.75;3.75;2.00
72509;PMS5003;60532;56.114;40.350;2022-08-19T18:09:06;3.00;2.50;1.00
72509;PMS5003;60532;56.114;40.350;2022-08-19T18:14:07;2.50;2.50;1.00
72509;PMS5003;60532;56.114;40.350;2022-08-19T18:19:08;3.75;3.75;2.00
72509;PMS5003;60532;56.114;40.350;2022-08-19T18:24:09;2.50;2.50;2.00
72509;PMS5003;60532;56.114;40.350;2022-08-19T18:29:09;4.00;4.00;2.00
72509;PMS5003;60532;56.114;40.350;2022-08-19T18:34:10;4.60;3.00;2.00
72509;PMS5003;60532;56.114;40.350;2022-08-19T18:39:11;5.50;3.75;2.00
72509;PMS5003;60532;56.114;40.350;2022-08-19T18:44:30;5.00;4.80;3.00
72509;PMS5003;60532;56.114;40.350;2022-08-19T18:49:48;6.80;4.20;2.20
72509;PMS5003;60532;56.114;40.350;2022-08-19T18:54:50;7.00;5.20;2.60
72509;PMS5003;60532;56.114;40.350;2022-08-19T18:59:51;7.20;5.40;3.00
72509;PMS5003;60532;56.114;40.350;2022-08-19T19:04:52;7.80;5.00;3.00
72509;PMS5003;60532;56.114;40.350;2022-08-19T19:09:55;7.80;6.80;3.00
72509;PMS5003;60532;56.114;40.350;2022-08-19T19:14:55;6.00;6.00;4.25
72509;PMS5003;60532;56.114;40.350;2022-08-19T19:19:57;3.80;3.80;1.60
72509;PMS5003;60532;56.114;40.350;2022-08-19T19:24:59;6.60;6.60;3.00
72509;PMS5003;60532;56.114;40.350;2022-08-19T19:29:59;6.75;5.00;3.00
72509;PMS5003;60532;56.114;40.350;2022-08-19T19:35:00;5.75;5.50;2.00
72509;PMS5003;60532;56.114;40.350;2022-08-19T19:40:00;5.50;4.00;2.50
72509;PMS5003;60532;56.114;40.350;2022-08-19T19:45:01;6.00;5.00;3.00
72509;PMS5003;60532;56.114;40.350;2022-08-19T19:50:03;6.20;5.00;3.00
72509;PMS5003;60532;56.114;40.350;2022-08-19T19:55:04;2.00;2.00;1.50
72509;PMS5003;60532;56.114;40.350;2022-08-19T20:00:04;6.00;6.00;4.00
72509;PMS5003;60532;56.114;40.350;2022-08-19T20:05:07;6.80;4.60;3.40
72509;PMS5003;60532;56.114;40.350;2022-08-19T20:10:08;3.25;3.25;1.25
72509;PMS5003;60532;56.114;40.350;2022-08-19T20:15:09;7.25;6.75;3.75
72509;PMS5003;60532;56.114;40.350;2022-08-19T20:20:10;7.25;6.25;4.00
72509;PMS5003;60532;56.114;40.350;2022-08-19T20:25:12;4.80;4.80;3.00
72509;PMS5003;60532;56.114;40.350;2022-08-19T20:30:14;8.40;7.60;3.60
72509;PMS5003;60532;56.114;40.350;2022-08-19T20:35:16;6.00;6.00;4.00
72509;PMS5003;60532;56.114;40.350;2022-08-19T20:40:17;5.80;5.80;3.20
72509;PMS5003;60532;56.114;40.350;2022-08-19T20:45:19;9.25;7.75;3.00
72509;PMS5003;60532;56.114;40.350;2022-08-19T20:50:21;13.20;8.60;5.00
72509;PMS5003;60532;56.114;40.350;2022-08-19T20:55:21;6.25;4.00;3.50
72509;PMS5003;60532;56.114;40.350;2022-08-19T21:00:22;6.75;3.75;1.00
72509;PMS5003;60532;56.114;40.350;2022-08-19T21:05:22;8.50;7.00;4.00
72509;PMS5003;60532;56.114;40.350;2022-08-19T21:10:23;6.50;6.00;4.50
72509;PMS5003;60532;56.114;40.350;2022-08-19T21:15:25;10.00;8.00;4.80
72509;PMS5003;60532;56.114;40.350;2022-08-19T21:20:26;9.25;8.75;5.00
72509;PMS5003;60532;56.114;40.350;2022-08-19T21:25:26;7.00;7.00;3.25
72509;PMS5003;60532;56.114;40.350;2022-08-19T21:30:28;8.50;8.00;4.00
72509;PMS5003;60532;56.114;40.350;2022-08-19T21:35:29;7.40;5.60;4.00
72509;PMS5003;60532;56.114;40.350;2022-08-19T21:40:30;8.40;8.20;4.00
72509;PMS5003;60532;56.114;40.350;2022-08-19T21:45:31;7.75;6.00;3.75
72509;PMS5003;60532;56.114;40.350;2022-08-19T21:50:32;8.00;7.00;4.00
72509;PMS5003;60532;56.114;40.350;2022-08-19T21:55:33;10.75;8.00;5.00
72509;PMS5003;60532;56.114;40.350;2022-08-19T22:00:33;4.50;4.50;3.00
72509;PMS5003;60532;56.114;40.350;2022-08-19T22:05:34;13.50;8.00;4.00
72509;PMS5003;60532;56.114;40.350;2022-08-19T22:10:35;8.00;7.00;3.25
72509;PMS5003;60532;56.114;40.350;2022-08-19T22:15:36;8.60;8.00;5.00
72509;PMS5003;60532;56.114;40.350;2022-08-19T22:20:36;13.75;9.75;4.75
72509;PMS5003;60532;56.114;40.350;2022-08-19T22:25:38;10.75;8.50;5.25
72509;PMS5003;60532;56.114;40.350;2022-08-19T22:30:40;10.00;8.00;5.00
72509;PMS5003;60532;56.114;40.350;2022-08-19T22:35:42;7.80;7.80;5.00
72509;PMS5003;60532;56.114;40.350;2022-08-19T22:40:43;7.20;7.20;5.80
72509;PMS5003;60532;56.114;40.350;2022-08-19T22:45:47;8.60;6.00;4.00
72509;PMS5003;60532;56.114;40.350;2022-08-19T22:50:48;9.60;9.40;4.80
72509;PMS5003;60532;56.114;40.350;2022-08-19T22:56:08;15.60;8.80;5.80
72509;PMS5003;60532;56.114;40.350;2022-08-19T23:01:10;9.20;7.40;3.60
72509;PMS5003;60532;56.114;40.350;2022-08-19T23:06:11;9.80;9.80;6.00
72509;PMS5003;60532;56.114;40.350;2022-08-19T23:11:13;11.00;8.60;5.60
72509;PMS5003;60532;56.114;40.350;2022-08-19T23:16:14;11.75;10.00;5.00
72509;PMS5003;60532;56.114;40.350;2022-08-19T23:21:14;11.00;9.50;5.75
72509;PMS5003;60532;56.114;40.350;2022-08-19T23:26:15;10.20;8.20;6.00
72509;PMS5003;60532;56.114;40.350;2022-08-19T23:31:16;7.25;7.25;5.75
72509;PMS5003;60532;56.114;40.350;2022-08-19T23:36:17;7.20;5.80;4.00
72509;PMS5003;60532;56.114;40.350;2022-08-19T23:41:19;8.20;8.20;4.80
72509;PMS5003;60532;56.114;40.350;2022-08-19T23:46:21;10.60;9.00;4.40
72509;PMS5003;60532;56.114;40.350;2022-08-19T23:51:21;8.40;7.80;5.00
72509;PMS5003;60532;56.114;40.350;2022-08-19T23:56:22;12.50;9.00;5.00
